sensor_id;sensor_type;location;lat;lon;timestamp;P1;durP1;ratioP1;P2;durP2;ratioP2
77573;SDS011;66710;48.868;9.080;2023-02-25T00:00:40;8.48;;;3.67;;
77573;SDS011;66710;48.868;9.080;2023-02-25T00:03:07;8.80;;;4.18;;
77573;SDS011;66710;48.868;9.080;2023-02-25T00:05:36;4.53;;;2.53;;
77573;SDS011;66710;48.868;9.080;2023-02-25T00:08:03;6.00;;;3.08;;
77573;SDS011;66710;48.868;9.080;2023-02-25T00:10:28;10.70;;;3.33;;
77573;SDS011;66710;48.868;9.080;2023-02-25T00:12:54;4.75;;;2.58;;
77573;SDS011;66710;48.868;9.080;2023-02-25T00:15:19;5.85;;;3.08;;
77573;SDS011;66710;48.868;9.080;2023-02-25T00:17:44;11.95;;;4.28;;
77573;SDS011;66710;48.868;9.080;2023-02-25T00:20:10;7.65;;;3.78;;
77573;SDS011;66710;48.868;9.080;2023-02-25T00:22:37;6.15;;;3.10;;
77573;SDS011;66710;48.868;9.080;2023-02-25T00:25:03;5.80;;;2.53;;
77573;SDS011;66710;48.868;9.080;2023-02-25T00:27:28;6.20;;;3.15;;
77573;SDS011;66710;48.868;9.080;2023-02-25T00:29:54;6.55;;;3.17;;
77573;SDS011;66710;48.868;9.080;2023-02-25T00:32:19;6.78;;;3.10;;
77573;SDS011;66710;48.868;9.080;2023-02-25T00:34:45;5.30;;;2.70;;
77573;SDS011;66710;48.868;9.080;2023-02-25T00:37:11;5.45;;;3.00;;
77573;SDS011;66710;48.868;9.080;2023-02-25T00:39:37;6.72;;;2.97;;
77573;SDS011;66710;48.868;9.080;2023-02-25T00:42:12;3.75;;;2.50;;
77573;SDS011;66710;48.868;9.080;2023-02-25T00:44:42;7.70;;;2.80;;
77573;SDS011;66710;48.868;9.080;2023-02-25T00:47:08;5.55;;;2.58;;
77573;SDS011;66710;48.868;9.080;2023-02-25T00:49:34;5.75;;;2.85;;
77573;SDS011;66710;48.868;9.080;2023-02-25T00:51:59;5.78;;;2.92;;
77573;SDS011;66710;48.868;9.080;2023-02-25T00:54:25;8.20;;;3.13;;
77573;SDS011;66710;48.868;9.080;2023-02-25T00:56:50;6.72;;;3.40;;
77573;SDS011;66710;48.868;9.080;2023-02-25T00:59:15;6.05;;;3.40;;
77573;SDS011;66710;48.868;9.080;2023-02-25T01:01:41;7.03;;;3.17;;
77573;SDS011;66710;48.868;9.080;2023-02-25T01:04:06;6.55;;;2.78;;
77573;SDS011;66710;48.868;9.080;2023-02-25T01:06:32;5.65;;;2.83;;
77573;SDS011;66710;48.868;9.080;2023-02-25T01:08:58;6.45;;;2.90;;
77573;SDS011;66710;48.868;9.080;2023-02-25T01:11:27;3.72;;;2.22;;
77573;SDS011;66710;48.868;9.080;2023-02-25T01:13:57;6.53;;;3.40;;
77573;SDS011;66710;48.868;9.080;2023-02-25T01:16:25;4.80;;;2.40;;
77573;SDS011;66710;48.868;9.080;2023-02-25T01:18:52;4.45;;;2.38;;
77573;SDS011;66710;48.868;9.080;2023-02-25T01:21:20;4.90;;;2.20;;
77573;SDS011;66710;48.868;9.080;2023-02-25T01:23:53;6.13;;;2.45;;
77573;SDS011;66710;48.868;9.080;2023-02-25T01:26:23;6.00;;;2.42;;
77573;SDS011;66710;48.868;9.080;2023-02-25T01:28:49;5.95;;;2.78;;
77573;SDS011;66710;48.868;9.080;2023-02-25T01:31:15;5.00;;;2.03;;
77573;SDS011;66710;48.868;9.080;2023-02-25T01:33:48;4.38;;;2.00;;
77573;SDS011;66710;48.868;9.080;2023-02-25T01:36:14;4.45;;;2.35;;
77573;SDS011;66710;48.868;9.080;2023-02-25T01:38:39;4.75;;;2.67;;
77573;SDS011;66710;48.868;9.080;2023-02-25T01:41:04;5.95;;;2.38;;
77573;SDS011;66710;48.868;9.080;2023-02-25T01:43:30;4.93;;;2.00;;
77573;SDS011;66710;48.868;9.080;2023-02-25T01:45:55;4.55;;;1.90;;
77573;SDS011;66710;48.868;9.080;2023-02-25T01:48:21;3.10;;;1.90;;
77573;SDS011;66710;48.868;9.080;2023-02-25T01:50:59;4.85;;;2.40;;
77573;SDS011;66710;48.868;9.080;2023-02-25T01:53:34;3.70;;;1.67;;
77573;SDS011;66710;48.868;9.080;2023-02-25T01:56:04;6.95;;;2.55;;
77573;SDS011;66710;48.868;9.080;2023-02-25T01:58:31;3.90;;;2.03;;
77573;SDS011;66710;48.868;9.080;2023-02-25T02:00:57;5.47;;;2.08;;
77573;SDS011;66710;48.868;9.080;2023-02-25T02:03:24;6.65;;;2.30;;
77573;SDS011;66710;48.868;9.080;2023-02-25T02:05:57;3.97;;;1.95;;
77573;SDS011;66710;48.868;9.080;2023-02-25T02:08:26;4.38;;;2.30;;
77573;SDS011;66710;48.868;9.080;2023-02-25T02:10:52;5.82;;;2.22;;
77573;SDS011;66710;48.868;9.080;2023-02-25T02:13:17;3.95;;;1.83;;
77573;SDS011;66710;48.868;9.080;2023-02-25T02:15:46;5.70;;;2.50;;
77573;SDS011;66710;48.868;9.080;2023-02-25T02:18:27;3.20;;;1.85;;
77573;SDS011;66710;48.868;9.080;2023-02-25T02:26:51;4.95;;;2.35;;
77573;SDS011;66710;48.868;9.080;2023-02-25T02:32:06;3.13;;;1.73;;
77573;SDS011;66710;48.868;9.080;2023-02-25T02:34:40;6.38;;;2.65;;
77573;SDS011;66710;48.868;9.080;2023-02-25T02:37:19;5.60;;;2.25;;
77573;SDS011;66710;48.868;9.080;2023-02-25T02:45:27;5.55;;;2.28;;
77573;SDS011;66710;48.868;9.080;2023-02-25T02:48:05;7.20;;;2.45;;
77573;SDS011;66710;48.868;9.080;2023-02-25T02:50:35;4.82;;;3.13;;
77573;SDS011;66710;48.868;9.080;2023-02-25T02:53:09;5.22;;;2.30;;
77573;SDS011;66710;48.868;9.080;2023-02-25T02:55:39;4.10;;;2.20;;
77573;SDS011;66710;48.868;9.080;2023-02-25T02:58:12;8.23;;;2.10;;
77573;SDS011;66710;48.868;9.080;2023-02-25T03:00:42;5.15;;;1.70;;
77573;SDS011;66710;48.868;9.080;2023-02-25T03:03:15;3.30;;;2.05;;
77573;SDS011;66710;48.868;9.080;2023-02-25T03:05:47;5.00;;;1.90;;
77573;SDS011;66710;48.868;9.080;2023-02-25T03:08:16;5.97;;;2.33;;
77573;SDS011;66710;48.868;9.080;2023-02-25T03:10:47;6.60;;;2.05;;
77573;SDS011;66710;48.868;9.080;2023-02-25T03:13:12;3.72;;;1.92;;
77573;SDS011;66710;48.868;9.080;2023-02-25T03:15:39;3.33;;;1.80;;
77573;SDS011;66710;48.868;9.080;2023-02-25T03:18:06;3.60;;;1.60;;
77573;SDS011;66710;48.868;9.080;2023-02-25T03:20:41;4.45;;;2.28;;
77573;SDS011;66710;48.868;9.080;2023-02-25T03:23:14;5.32;;;2.20;;
77573;SDS011;66710;48.868;9.080;2023-02-25T03:25:46;3.90;;;1.60;;
77573;SDS011;66710;48.868;9.080;2023-02-25T03:30:52;3.63;;;1.55;;
77573;SDS011;66710;48.868;9.080;2023-02-25T03:36:11;3.90;;;1.60;;
77573;SDS011;66710;48.868;9.080;2023-02-25T03:38:48;2.85;;;1.50;;
77573;SDS011;66710;48.868;9.080;2023-02-25T03:41:17;3.80;;;1.60;;
77573;SDS011;66710;48.868;9.080;2023-02-25T03:43:48;4.93;;;2.05;;
77573;SDS011;66710;48.868;9.080;2023-02-25T03:46:17;4.70;;;1.85;;
77573;SDS011;66710;48.868;9.080;2023-02-25T03:48:44;3.22;;;1.63;;
77573;SDS011;66710;48.868;9.080;2023-02-25T03:51:11;3.70;;;1.38;;
77573;SDS011;66710;48.868;9.080;2023-02-25T03:53:40;2.70;;;1.33;;
77573;SDS011;66710;48.868;9.080;2023-02-25T03:56:06;1.98;;;1.00;;
77573;SDS011;66710;48.868;9.080;2023-02-25T03:58:38;2.78;;;1.13;;
77573;SDS011;66710;48.868;9.080;2023-02-25T04:01:05;5.50;;;1.63;;
77573;SDS011;66710;48.868;9.080;2023-02-25T04:03:35;3.30;;;1.40;;
77573;SDS011;66710;48.868;9.080;2023-02-25T04:06:00;5.18;;;1.58;;
77573;SDS011;66710;48.868;9.080;2023-02-25T04:08:26;5.40;;;1.55;;
77573;SDS011;66710;48.868;9.080;2023-02-25T04:10:51;2.45;;;0.98;;
77573;SDS011;66710;48.868;9.080;2023-02-25T04:13:16;3.13;;;1.17;;
77573;SDS011;66710;48.868;9.080;2023-02-25T04:15:44;2.58;;;1.13;;
77573;SDS011;66710;48.868;9.080;2023-02-25T04:18:11;4.43;;;1.63;;
77573;SDS011;66710;48.868;9.080;2023-02-25T04:20:37;3.88;;;1.40;;
77573;SDS011;66710;48.868;9.080;2023-02-25T04:23:03;3.47;;;1.42;;
77573;SDS011;66710;48.868;9.080;2023-02-25T04:25:28;4.82;;;1.23;;
77573;SDS011;66710;48.868;9.080;2023-02-25T04:27:54;3.67;;;1.20;;
77573;SDS011;66710;48.868;9.080;2023-02-25T04:30:19;2.90;;;1.10;;
77573;SDS011;66710;48.868;9.080;2023-02-25T04:32:44;4.10;;;1.42;;
77573;SDS011;66710;48.868;9.080;2023-02-25T04:35:10;3.30;;;1.25;;
77573;SDS011;66710;48.868;9.080;2023-02-25T04:37:35;2.03;;;1.50;;
77573;SDS011;66710;48.868;9.080;2023-02-25T04:40:01;3.05;;;1.45;;
77573;SDS011;66710;48.868;9.080;2023-02-25T04:42:28;2.75;;;1.25;;
77573;SDS011;66710;48.868;9.080;2023-02-25T04:44:54;5.30;;;1.63;;
77573;SDS011;66710;48.868;9.080;2023-02-25T04:47:20;2.28;;;1.30;;
77573;SDS011;66710;48.868;9.080;2023-02-25T04:49:45;2.45;;;0.98;;
77573;SDS011;66710;48.868;9.080;2023-02-25T04:52:11;2.47;;;1.10;;
77573;SDS011;66710;48.868;9.080;2023-02-25T04:54:37;6.00;;;1.30;;
77573;SDS011;66710;48.868;9.080;2023-02-25T04:57:02;4.43;;;1.45;;
77573;SDS011;66710;48.868;9.080;2023-02-25T04:59:28;2.85;;;1.50;;
77573;SDS011;66710;48.868;9.080;2023-02-25T05:01:53;2.58;;;1.30;;
77573;SDS011;66710;48.868;9.080;2023-02-25T05:04:18;1.55;;;1.10;;
77573;SDS011;66710;48.868;9.080;2023-02-25T05:06:43;2.65;;;0.90;;
77573;SDS011;66710;48.868;9.080;2023-02-25T05:09:09;3.60;;;1.40;;
77573;SDS011;66710;48.868;9.080;2023-02-25T05:11:34;3.40;;;1.08;;
77573;SDS011;66710;48.868;9.080;2023-02-25T05:13:59;2.85;;;1.10;;
77573;SDS011;66710;48.868;9.080;2023-02-25T05:16:24;2.40;;;0.98;;
77573;SDS011;66710;48.868;9.080;2023-02-25T05:18:50;4.50;;;1.20;;
77573;SDS011;66710;48.868;9.080;2023-02-25T05:21:17;1.95;;;0.80;;
77573;SDS011;66710;48.868;9.080;2023-02-25T05:23:44;1.77;;;0.77;;
77573;SDS011;66710;48.868;9.080;2023-02-25T05:26:11;2.55;;;0.95;;
77573;SDS011;66710;48.868;9.080;2023-02-25T05:28:38;1.75;;;0.82;;
77573;SDS011;66710;48.868;9.080;2023-02-25T05:31:05;2.70;;;0.68;;
77573;SDS011;66710;48.868;9.080;2023-02-25T05:33:32;2.28;;;0.80;;
77573;SDS011;66710;48.868;9.080;2023-02-25T05:35:57;1.52;;;0.75;;
77573;SDS011;66710;48.868;9.080;2023-02-25T05:38:23;2.90;;;0.77;;
77573;SDS011;66710;48.868;9.080;2023-02-25T05:40:49;4.05;;;1.33;;
77573;SDS011;66710;48.868;9.080;2023-02-25T05:43:15;3.03;;;0.98;;
77573;SDS011;66710;48.868;9.080;2023-02-25T05:45:40;2.97;;;1.13;;
77573;SDS011;66710;48.868;9.080;2023-02-25T05:48:05;4.25;;;1.10;;
77573;SDS011;66710;48.868;9.080;2023-02-25T05:50:31;4.80;;;1.30;;
77573;SDS011;66710;48.868;9.080;2023-02-25T05:52:58;3.70;;;0.90;;
77573;SDS011;66710;48.868;9.080;2023-02-25T05:55:24;1.67;;;1.00;;
77573;SDS011;66710;48.868;9.080;2023-02-25T05:57:50;2.65;;;0.90;;
77573;SDS011;66710;48.868;9.080;2023-02-25T06:00:16;3.58;;;0.73;;
77573;SDS011;66710;48.868;9.080;2023-02-25T06:02:45;4.78;;;1.08;;
77573;SDS011;66710;48.868;9.080;2023-02-25T06:05:10;2.28;;;1.02;;
77573;SDS011;66710;48.868;9.080;2023-02-25T06:07:36;9.52;;;1.60;;
77573;SDS011;66710;48.868;9.080;2023-02-25T06:10:01;3.20;;;0.90;;
77573;SDS011;66710;48.868;9.080;2023-02-25T06:12:27;2.30;;;0.90;;
77573;SDS011;66710;48.868;9.080;2023-02-25T06:14:53;3.28;;;1.00;;
77573;SDS011;66710;48.868;9.080;2023-02-25T06:17:19;2.42;;;1.33;;
77573;SDS011;66710;48.868;9.080;2023-02-25T06:19:44;2.05;;;0.88;;
77573;SDS011;66710;48.868;9.080;2023-02-25T06:22:09;2.67;;;1.13;;
77573;SDS011;66710;48.868;9.080;2023-02-25T06:24:35;4.07;;;0.52;;
77573;SDS011;66710;48.868;9.080;2023-02-25T06:27:00;2.72;;;1.23;;
77573;SDS011;66710;48.868;9.080;2023-02-25T06:29:25;5.38;;;1.00;;
77573;SDS011;66710;48.868;9.080;2023-02-25T06:31:51;0.10;;;0.10;;
77573;SDS011;66710;48.868;9.080;2023-02-25T06:34:16;2.13;;;0.88;;
77573;SDS011;66710;48.868;9.080;2023-02-25T06:36:42;1.33;;;0.73;;
77573;SDS011;66710;48.868;9.080;2023-02-25T06:39:08;1.27;;;0.88;;
77573;SDS011;66710;48.868;9.080;2023-02-25T06:41:34;1.58;;;1.02;;
77573;SDS011;66710;48.868;9.080;2023-02-25T06:43:59;2.60;;;0.63;;
77573;SDS011;66710;48.868;9.080;2023-02-25T06:46:25;2.80;;;0.90;;
77573;SDS011;66710;48.868;9.080;2023-02-25T06:48:50;1.00;;;0.70;;
77573;SDS011;66710;48.868;9.080;2023-02-25T06:51:16;1.77;;;1.00;;
77573;SDS011;66710;48.868;9.080;2023-02-25T06:53:42;1.90;;;0.77;;
77573;SDS011;66710;48.868;9.080;2023-02-25T06:56:09;3.20;;;0.80;;
77573;SDS011;66710;48.868;9.080;2023-02-25T06:58:37;4.47;;;1.17;;
77573;SDS011;66710;48.868;9.080;2023-02-25T07:01:09;3.03;;;0.80;;
77573;SDS011;66710;48.868;9.080;2023-02-25T07:03:37;2.38;;;0.90;;
77573;SDS011;66710;48.868;9.080;2023-02-25T07:06:03;0.75;;;0.65;;
77573;SDS011;66710;48.868;9.080;2023-02-25T07:08:28;1.42;;;0.80;;
77573;SDS011;66710;48.868;9.080;2023-02-25T07:10:54;3.13;;;1.17;;
77573;SDS011;66710;48.868;9.080;2023-02-25T07:13:20;5.13;;;1.10;;
77573;SDS011;66710;48.868;9.080;2023-02-25T07:15:45;2.05;;;1.00;;
77573;SDS011;66710;48.868;9.080;2023-02-25T07:18:10;3.55;;;0.98;;
77573;SDS011;66710;48.868;9.080;2023-02-25T07:20:36;4.00;;;1.23;;
77573;SDS011;66710;48.868;9.080;2023-02-25T07:23:03;2.47;;;1.30;;
77573;SDS011;66710;48.868;9.080;2023-02-25T07:25:29;2.67;;;1.20;;
77573;SDS011;66710;48.868;9.080;2023-02-25T07:27:55;1.58;;;0.82;;
77573;SDS011;66710;48.868;9.080;2023-02-25T07:30:20;5.88;;;2.33;;
77573;SDS011;66710;48.868;9.080;2023-02-25T07:32:45;3.38;;;1.48;;
77573;SDS011;66710;48.868;9.080;2023-02-25T07:35:11;1.80;;;0.98;;
77573;SDS011;66710;48.868;9.080;2023-02-25T07:37:36;4.05;;;0.80;;
77573;SDS011;66710;48.868;9.080;2023-02-25T07:40:06;2.38;;;1.13;;
77573;SDS011;66710;48.868;9.080;2023-02-25T07:42:36;1.65;;;0.90;;
77573;SDS011;66710;48.868;9.080;2023-02-25T07:45:02;2.45;;;1.20;;
77573;SDS011;66710;48.868;9.080;2023-02-25T07:47:27;6.15;;;1.13;;
77573;SDS011;66710;48.868;9.080;2023-02-25T07:49:53;2.80;;;1.10;;
77573;SDS011;66710;48.868;9.080;2023-02-25T07:52:18;3.67;;;1.35;;
77573;SDS011;66710;48.868;9.080;2023-02-25T07:54:43;1.42;;;0.75;;
77573;SDS011;66710;48.868;9.080;2023-02-25T07:57:08;1.27;;;0.73;;
77573;SDS011;66710;48.868;9.080;2023-02-25T07:59:33;1.45;;;0.85;;
77573;SDS011;66710;48.868;9.080;2023-02-25T08:01:59;4.28;;;1.13;;
77573;SDS011;66710;48.868;9.080;2023-02-25T08:04:25;1.98;;;0.80;;
77573;SDS011;66710;48.868;9.080;2023-02-25T08:06:51;0.40;;;0.35;;
77573;SDS011;66710;48.868;9.080;2023-02-25T08:09:16;4.40;;;0.95;;
77573;SDS011;66710;48.868;9.080;2023-02-25T08:11:42;2.88;;;1.40;;
77573;SDS011;66710;48.868;9.080;2023-02-25T08:14:08;2.92;;;0.88;;
77573;SDS011;66710;48.868;9.080;2023-02-25T08:16:34;1.27;;;0.88;;
77573;SDS011;66710;48.868;9.080;2023-02-25T08:19:00;2.28;;;1.17;;
77573;SDS011;66710;48.868;9.080;2023-02-25T08:21:25;1.48;;;0.85;;
77573;SDS011;66710;48.868;9.080;2023-02-25T08:23:51;3.20;;;1.17;;
77573;SDS011;66710;48.868;9.080;2023-02-25T08:26:17;3.50;;;0.85;;
77573;SDS011;66710;48.868;9.080;2023-02-25T08:28:43;1.35;;;0.65;;
77573;SDS011;66710;48.868;9.080;2023-02-25T08:31:09;2.25;;;1.27;;
77573;SDS011;66710;48.868;9.080;2023-02-25T08:33:36;2.13;;;1.02;;
77573;SDS011;66710;48.868;9.080;2023-02-25T08:36:16;2.55;;;1.10;;
77573;SDS011;66710;48.868;9.080;2023-02-25T08:38:44;3.83;;;1.25;;
77573;SDS011;66710;48.868;9.080;2023-02-25T08:41:09;5.78;;;0.90;;
77573;SDS011;66710;48.868;9.080;2023-02-25T08:43:35;1.95;;;0.75;;
77573;SDS011;66710;48.868;9.080;2023-02-25T08:46:00;2.28;;;0.95;;
77573;SDS011;66710;48.868;9.080;2023-02-25T08:48:26;1.63;;;1.00;;
77573;SDS011;66710;48.868;9.080;2023-02-25T08:50:51;6.25;;;1.15;;
77573;SDS011;66710;48.868;9.080;2023-02-25T08:53:17;1.20;;;0.80;;
77573;SDS011;66710;48.868;9.080;2023-02-25T08:55:43;2.25;;;0.95;;
77573;SDS011;66710;48.868;9.080;2023-02-25T08:58:08;3.75;;;1.00;;
77573;SDS011;66710;48.868;9.080;2023-02-25T09:00:33;3.35;;;1.05;;
77573;SDS011;66710;48.868;9.080;2023-02-25T09:03:00;5.18;;;1.10;;
77573;SDS011;66710;48.868;9.080;2023-02-25T09:05:25;2.55;;;1.20;;
77573;SDS011;66710;48.868;9.080;2023-02-25T09:07:50;2.17;;;1.10;;
77573;SDS011;66710;48.868;9.080;2023-02-25T09:10:16;2.20;;;0.77;;
77573;SDS011;66710;48.868;9.080;2023-02-25T09:12:42;3.35;;;1.17;;
77573;SDS011;66710;48.868;9.080;2023-02-25T09:15:09;1.08;;;0.70;;
77573;SDS011;66710;48.868;9.080;2023-02-25T09:17:35;2.17;;;1.27;;
77573;SDS011;66710;48.868;9.080;2023-02-25T09:20:00;3.92;;;1.00;;
77573;SDS011;66710;48.868;9.080;2023-02-25T09:22:30;4.25;;;1.30;;
77573;SDS011;66710;48.868;9.080;2023-02-25T09:24:57;2.28;;;0.82;;
77573;SDS011;66710;48.868;9.080;2023-02-25T09:27:22;1.67;;;0.80;;
77573;SDS011;66710;48.868;9.080;2023-02-25T09:29:47;1.63;;;0.73;;
77573;SDS011;66710;48.868;9.080;2023-02-25T09:32:17;2.42;;;0.93;;
77573;SDS011;66710;48.868;9.080;2023-02-25T09:34:43;1.38;;;0.77;;
77573;SDS011;66710;48.868;9.080;2023-02-25T09:37:09;2.75;;;0.80;;
77573;SDS011;66710;48.868;9.080;2023-02-25T09:39:36;1.27;;;0.60;;
77573;SDS011;66710;48.868;9.080;2023-02-25T09:42:13;3.20;;;0.77;;
77573;SDS011;66710;48.868;9.080;2023-02-25T09:44:43;1.73;;;0.50;;
77573;SDS011;66710;48.868;9.080;2023-02-25T09:47:13;1.65;;;0.73;;
77573;SDS011;66710;48.868;9.080;2023-02-25T09:50:03;2.50;;;0.68;;
77573;SDS011;66710;48.868;9.080;2023-02-25T09:52:42;1.63;;;0.60;;
77573;SDS011;66710;48.868;9.080;2023-02-25T09:55:28;2.17;;;0.77;;
77573;SDS011;66710;48.868;9.080;2023-02-25T10:00:58;1.45;;;0.45;;
77573;SDS011;66710;48.868;9.080;2023-02-25T10:03:37;1.23;;;0.60;;
77573;SDS011;66710;48.868;9.080;2023-02-25T10:06:51;1.63;;;0.60;;
77573;SDS011;66710;48.868;9.080;2023-02-25T10:11:49;0.88;;;0.40;;
77573;SDS011;66710;48.868;9.080;2023-02-25T10:14:33;0.60;;;0.43;;
77573;SDS011;66710;48.868;9.080;2023-02-25T10:20:06;1.23;;;0.50;;
77573;SDS011;66710;48.868;9.080;2023-02-25T10:23:12;1.83;;;0.80;;
77573;SDS011;66710;48.868;9.080;2023-02-25T10:26:03;1.13;;;0.52;;
77573;SDS011;66710;48.868;9.080;2023-02-25T10:28:34;2.05;;;0.52;;
77573;SDS011;66710;48.868;9.080;2023-02-25T10:31:16;0.35;;;0.30;;
77573;SDS011;66710;48.868;9.080;2023-02-25T10:33:44;0.63;;;0.50;;
77573;SDS011;66710;48.868;9.080;2023-02-25T10:38:43;2.72;;;1.25;;
77573;SDS011;66710;48.868;9.080;2023-02-25T10:41:11;2.40;;;0.73;;
77573;SDS011;66710;48.868;9.080;2023-02-25T10:43:36;3.42;;;0.77;;
77573;SDS011;66710;48.868;9.080;2023-02-25T10:46:03;2.38;;;1.02;;
77573;SDS011;66710;48.868;9.080;2023-02-25T10:48:46;3.47;;;1.23;;
77573;SDS011;66710;48.868;9.080;2023-02-25T10:51:27;1.10;;;0.63;;
77573;SDS011;66710;48.868;9.080;2023-02-25T10:56:25;1.73;;;0.88;;
77573;SDS011;66710;48.868;9.080;2023-02-25T10:58:59;2.53;;;1.25;;
77573;SDS011;66710;48.868;9.080;2023-02-25T11:01:35;3.03;;;0.90;;
77573;SDS011;66710;48.868;9.080;2023-02-25T11:04:03;2.15;;;1.00;;
77573;SDS011;66710;48.868;9.080;2023-02-25T11:06:34;1.00;;;0.63;;
77573;SDS011;66710;48.868;9.080;2023-02-25T11:09:03;2.00;;;1.20;;
77573;SDS011;66710;48.868;9.080;2023-02-25T11:11:33;1.35;;;1.00;;
77573;SDS011;66710;48.868;9.080;2023-02-25T11:14:14;2.72;;;1.13;;
77573;SDS011;66710;48.868;9.080;2023-02-25T11:16:40;5.78;;;0.93;;
77573;SDS011;66710;48.868;9.080;2023-02-25T11:19:26;2.45;;;0.90;;
77573;SDS011;66710;48.868;9.080;2023-02-25T11:21:55;1.92;;;0.85;;
77573;SDS011;66710;48.868;9.080;2023-02-25T11:26:52;4.10;;;1.65;;
77573;SDS011;66710;48.868;9.080;2023-02-25T11:29:21;2.53;;;1.25;;
77573;SDS011;66710;48.868;9.080;2023-02-25T11:34:24;3.75;;;1.20;;
77573;SDS011;66710;48.868;9.080;2023-02-25T11:36:52;2.22;;;1.05;;
77573;SDS011;66710;48.868;9.080;2023-02-25T11:39:22;2.60;;;1.20;;
77573;SDS011;66710;48.868;9.080;2023-02-25T11:42:00;2.25;;;1.20;;
77573;SDS011;66710;48.868;9.080;2023-02-25T11:44:45;4.05;;;1.77;;
77573;SDS011;66710;48.868;9.080;2023-02-25T11:49:59;1.88;;;1.10;;
77573;SDS011;66710;48.868;9.080;2023-02-25T12:00:40;1.85;;;1.00;;
77573;SDS011;66710;48.868;9.080;2023-02-25T12:03:19;2.20;;;1.20;;
77573;SDS011;66710;48.868;9.080;2023-02-25T12:08:55;2.13;;;1.25;;
77573;SDS011;66710;48.868;9.080;2023-02-25T12:14:16;2.22;;;1.20;;
77573;SDS011;66710;48.868;9.080;2023-02-25T12:42:24;3.65;;;1.38;;
77573;SDS011;66710;48.868;9.080;2023-02-25T12:53:05;2.90;;;0.98;;
77573;SDS011;66710;48.868;9.080;2023-02-25T12:58:31;2.75;;;1.17;;
77573;SDS011;66710;48.868;9.080;2023-02-25T13:04:22;3.70;;;1.35;;
77573;SDS011;66710;48.868;9.080;2023-02-25T13:21:13;3.85;;;1.70;;
77573;SDS011;66710;48.868;9.080;2023-02-25T13:23:45;0.85;;;0.65;;
77573;SDS011;66710;48.868;9.080;2023-02-25T13:26:26;4.18;;;1.45;;
77573;SDS011;66710;48.868;9.080;2023-02-25T13:34:47;2.67;;;1.05;;
77573;SDS011;66710;48.868;9.080;2023-02-25T13:37:32;3.22;;;1.15;;
77573;SDS011;66710;48.868;9.080;2023-02-25T13:40:15;3.25;;;1.40;;
77573;SDS011;66710;48.868;9.080;2023-02-25T13:42:53;3.00;;;1.20;;
77573;SDS011;66710;48.868;9.080;2023-02-25T14:15:34;1.70;;;1.30;;
77573;SDS011;66710;48.868;9.080;2023-02-25T14:23:54;3.33;;;1.20;;
77573;SDS011;66710;48.868;9.080;2023-02-25T14:26:33;3.47;;;1.00;;
77573;SDS011;66710;48.868;9.080;2023-02-25T14:31:56;3.50;;;1.15;;
77573;SDS011;66710;48.868;9.080;2023-02-25T14:40:45;4.18;;;1.20;;
77573;SDS011;66710;48.868;9.080;2023-02-25T14:46:22;3.92;;;1.38;;
77573;SDS011;66710;48.868;9.080;2023-02-25T14:48:57;3.53;;;1.20;;
77573;SDS011;66710;48.868;9.080;2023-02-25T14:51:54;2.92;;;1.20;;
77573;SDS011;66710;48.868;9.080;2023-02-25T15:02:52;2.70;;;0.88;;
77573;SDS011;66710;48.868;9.080;2023-02-25T15:17:07;2.35;;;1.10;;
77573;SDS011;66710;48.868;9.080;2023-02-25T15:23:02;4.57;;;1.20;;
77573;SDS011;66710;48.868;9.080;2023-02-25T15:25:35;3.55;;;1.20;;
77573;SDS011;66710;48.868;9.080;2023-02-25T15:38:48;4.25;;;1.25;;
77573;SDS011;66710;48.868;9.080;2023-02-25T15:49:34;4.72;;;1.55;;
77573;SDS011;66710;48.868;9.080;2023-02-25T15:52:02;5.55;;;2.63;;
77573;SDS011;66710;48.868;9.080;2023-02-25T15:59:38;5.93;;;2.10;;
77573;SDS011;66710;48.868;9.080;2023-02-25T16:02:38;4.60;;;1.38;;
77573;SDS011;66710;48.868;9.080;2023-02-25T16:07:39;6.63;;;2.97;;
77573;SDS011;66710;48.868;9.080;2023-02-25T16:10:08;6.85;;;2.28;;
77573;SDS011;66710;48.868;9.080;2023-02-25T16:12:46;5.15;;;1.50;;
77573;SDS011;66710;48.868;9.080;2023-02-25T16:15:20;6.43;;;2.17;;
77573;SDS011;66710;48.868;9.080;2023-02-25T16:17:55;4.28;;;1.67;;
77573;SDS011;66710;48.868;9.080;2023-02-25T16:20:27;3.03;;;1.45;;
77573;SDS011;66710;48.868;9.080;2023-02-25T16:22:56;5.13;;;1.75;;
77573;SDS011;66710;48.868;9.080;2023-02-25T16:25:32;6.05;;;2.22;;
77573;SDS011;66710;48.868;9.080;2023-02-25T16:30:51;4.72;;;2.35;;
77573;SDS011;66710;48.868;9.080;2023-02-25T16:33:33;5.95;;;2.30;;
77573;SDS011;66710;48.868;9.080;2023-02-25T16:36:06;6.05;;;2.05;;
77573;SDS011;66710;48.868;9.080;2023-02-25T16:38:46;5.97;;;2.70;;
77573;SDS011;66710;48.868;9.080;2023-02-25T16:41:19;4.80;;;2.40;;
77573;SDS011;66710;48.868;9.080;2023-02-25T16:43:46;5.75;;;2.50;;
77573;SDS011;66710;48.868;9.080;2023-02-25T16:46:13;6.20;;;2.58;;
77573;SDS011;66710;48.868;9.080;2023-02-25T16:48:48;5.70;;;2.35;;
77573;SDS011;66710;48.868;9.080;2023-02-25T16:51:19;4.07;;;2.13;;
77573;SDS011;66710;48.868;9.080;2023-02-25T16:53:50;5.55;;;2.50;;
77573;SDS011;66710;48.868;9.080;2023-02-25T16:56:20;5.97;;;2.40;;
77573;SDS011;66710;48.868;9.080;2023-02-25T16:58:59;8.55;;;2.83;;
77573;SDS011;66710;48.868;9.080;2023-02-25T17:01:30;8.07;;;2.75;;
77573;SDS011;66710;48.868;9.080;2023-02-25T17:04:06;8.02;;;3.25;;
77573;SDS011;66710;48.868;9.080;2023-02-25T17:06:38;7.90;;;3.42;;
77573;SDS011;66710;48.868;9.080;2023-02-25T17:09:04;7.57;;;3.25;;
77573;SDS011;66710;48.868;9.080;2023-02-25T17:11:29;7.72;;;3.17;;
77573;SDS011;66710;48.868;9.080;2023-02-25T17:13:54;6.35;;;3.40;;
77573;SDS011;66710;48.868;9.080;2023-02-25T17:16:27;6.82;;;2.50;;
77573;SDS011;66710;48.868;9.080;2023-02-25T17:19:01;5.82;;;2.10;;
77573;SDS011;66710;48.868;9.080;2023-02-25T17:21:35;8.60;;;3.05;;
77573;SDS011;66710;48.868;9.080;2023-02-25T17:24:04;12.02;;;4.50;;
77573;SDS011;66710;48.868;9.080;2023-02-25T17:26:32;4.43;;;2.47;;
77573;SDS011;66710;48.868;9.080;2023-02-25T17:28:59;6.05;;;2.35;;
77573;SDS011;66710;48.868;9.080;2023-02-25T17:31:33;2.95;;;1.98;;
77573;SDS011;66710;48.868;9.080;2023-02-25T17:34:09;4.93;;;2.83;;
77573;SDS011;66710;48.868;9.080;2023-02-25T17:36:39;7.88;;;3.35;;
77573;SDS011;66710;48.868;9.080;2023-02-25T17:39:06;6.82;;;3.72;;
77573;SDS011;66710;48.868;9.080;2023-02-25T17:44:05;4.28;;;2.15;;
77573;SDS011;66710;48.868;9.080;2023-02-25T17:46:44;4.88;;;2.20;;
77573;SDS011;66710;48.868;9.080;2023-02-25T17:51:39;5.07;;;3.25;;
77573;SDS011;66710;48.868;9.080;2023-02-25T17:54:05;4.32;;;2.53;;
77573;SDS011;66710;48.868;9.080;2023-02-25T17:56:32;6.53;;;2.53;;
77573;SDS011;66710;48.868;9.080;2023-02-25T17:59:01;3.88;;;2.35;;
77573;SDS011;66710;48.868;9.080;2023-02-25T18:01:30;4.07;;;2.53;;
77573;SDS011;66710;48.868;9.080;2023-02-25T18:04:14;4.93;;;2.50;;
77573;SDS011;66710;48.868;9.080;2023-02-25T18:06:58;6.05;;;3.50;;
77573;SDS011;66710;48.868;9.080;2023-02-25T18:09:42;6.55;;;3.65;;
77573;SDS011;66710;48.868;9.080;2023-02-25T18:12:12;6.45;;;3.05;;
77573;SDS011;66710;48.868;9.080;2023-02-25T18:14:54;9.63;;;4.05;;
77573;SDS011;66710;48.868;9.080;2023-02-25T18:17:26;5.28;;;3.20;;
77573;SDS011;66710;48.868;9.080;2023-02-25T18:19:56;5.63;;;2.50;;
77573;SDS011;66710;48.868;9.080;2023-02-25T18:28:01;6.20;;;3.45;;
77573;SDS011;66710;48.868;9.080;2023-02-25T18:30:28;6.93;;;3.50;;
77573;SDS011;66710;48.868;9.080;2023-02-25T18:32:54;4.82;;;2.17;;
77573;SDS011;66710;48.868;9.080;2023-02-25T18:35:23;5.22;;;2.70;;
77573;SDS011;66710;48.868;9.080;2023-02-25T18:37:51;5.75;;;2.47;;
77573;SDS011;66710;48.868;9.080;2023-02-25T18:40:28;4.63;;;2.17;;
77573;SDS011;66710;48.868;9.080;2023-02-25T18:42:56;5.65;;;2.25;;
77573;SDS011;66710;48.868;9.080;2023-02-25T18:45:22;4.82;;;2.15;;
77573;SDS011;66710;48.868;9.080;2023-02-25T18:47:49;2.47;;;1.50;;